Time;durP1;ratioP1;P1;durP2;ratioP2;P2;SDS_P1;SDS_P2;PMS_P1;PMS_P2;Temp;Humidity;BMP_temperature;BMP_pressure;BME280_temperature;BME280_humidity;BME280_pressure;Samples;Min_cycle;Max_cycle;Signal;HPM_P1;HPM_P2
2022/10/09 00:00:44;;;;;;;32.33;25.83;;;16.40;99.90;;;;;;4957341;29;20039;-64
2022/10/09 00:03:10;;;;;;;25.98;23.20;;;16.40;99.90;;;;;;4957385;29;20023;-64
2022/10/09 00:05:35;;;;;;;21.90;19.63;;;16.30;99.90;;;;;;4957417;29;20101;-64
2022/10/09 00:08:01;;;;;;;20.30;18.23;;;16.30;99.90;;;;;;4957373;29;20065;-66
2022/10/09 00:10:28;;;;;;;22.23;19.40;;;16.30;99.90;;;;;;4957265;29;20031;-64
2022/10/09 00:12:54;;;;;;;25.10;22.58;;;16.30;99.90;;;;;;4957103;29;20027;-66
2022/10/09 00:15:20;;;;;;;20.17;18.15;;;16.30;99.90;;;;;;4957284;29;20028;-65
2022/10/09 00:17:45;;;;;;;25.08;21.20;;;16.30;99.90;;;;;;4956956;29;20023;-68
2022/10/09 00:20:11;;;;;;;21.05;18.85;;;16.30;99.90;;;;;;4957162;29;20046;-64
2022/10/09 00:22:38;;;;;;;18.05;16.25;;;16.30;99.90;;;;;;4957077;29;20110;-67
2022/10/09 00:25:04;;;;;;;18.15;16.25;;;16.30;99.90;;;;;;4956857;28;20441;-66
2022/10/09 00:27:30;;;;;;;20.98;18.98;;;16.30;99.90;;;;;;4956732;28;20130;-66
2022/10/09 00:29:55;;;;;;;19.35;17.48;;;16.40;99.90;;;;;;4957089;29;20062;-64
2022/10/09 00:32:21;;;;;;;16.00;14.40;;;16.40;99.90;;;;;;4956945;29;20024;-66
2022/10/09 00:34:47;;;;;;;15.32;13.80;;;16.40;99.90;;;;;;4956819;29;20034;-67
2022/10/09 00:37:13;;;;;;;20.27;18.05;;;16.30;99.90;;;;;;4957001;29;20078;-68
2022/10/09 00:39:38;;;;;;;15.27;13.88;;;16.30;99.90;;;;;;4949178;29;20031;-64
2022/10/09 00:42:04;;;;;;;19.33;17.10;;;16.30;99.90;;;;;;4956700;29;20525;-62
2022/10/09 00:45:06;;;;;;;19.35;17.35;;;16.30;99.90;;;;;;4956704;29;20023;-63
2022/10/09 00:47:41;;;;;;;16.70;14.85;;;16.30;99.90;;;;;;4878967;29;20404;-64
2022/10/09 00:50:20;;;;;;;17.23;15.55;;;16.20;99.90;;;;;;4946036;29;20047;-63
2022/10/09 00:52:49;;;;;;;14.98;13.52;;;16.20;99.90;;;;;;4956478;29;20028;-66
2022/10/09 00:55:15;;;;;;;18.50;16.73;;;16.20;99.90;;;;;;4956326;29;20038;-66
2022/10/09 00:57:41;;;;;;;15.70;14.20;;;16.20;99.90;;;;;;4956740;29;20478;-67
2022/10/09 01:00:09;;;;;;;17.92;14.80;;;16.20;99.90;;;;;;4956528;29;20042;-66
2022/10/09 01:02:35;;;;;;;24.90;22.13;;;16.20;99.90;;;;;;4956405;29;20078;-66
2022/10/09 01:05:01;;;;;;;26.88;23.88;;;16.20;99.90;;;;;;4956309;29;20027;-66
2022/10/09 01:07:33;;;;;;;19.48;17.58;;;16.00;99.90;;;;;;4956151;29;20044;-60
2022/10/09 01:10:13;;;;;;;17.85;16.05;;;15.90;99.90;;;;;;4956042;29;20393;-67
2022/10/09 01:12:54;;;;;;;17.67;15.88;;;15.90;99.90;;;;;;4956017;29;20023;-63
2022/10/09 01:15:26;;;;;;;21.67;19.38;;;16.00;99.90;;;;;;4956108;29;20034;-64
2022/10/09 01:18:11;;;;;;;19.27;17.27;;;16.10;99.90;;;;;;4955951;29;20500;-65
2022/10/09 01:20:47;;;;;;;16.75;15.15;;;16.10;99.90;;;;;;4955951;29;20042;-64
2022/10/09 01:23:34;;;;;;;16.98;15.27;;;16.10;99.90;;;;;;4955726;29;20102;-63
2022/10/09 01:26:17;;;;;;;16.42;14.80;;;16.10;99.90;;;;;;4955872;28;20367;-64
2022/10/09 01:28:50;;;;;;;16.90;15.20;;;16.10;99.90;;;;;;4955881;29;20130;-63
2022/10/09 01:31:16;;;;;;;19.40;17.40;;;16.10;99.90;;;;;;4955852;29;20118;-64
2022/10/09 01:33:43;;;;;;;17.00;15.25;;;16.20;99.90;;;;;;4955704;29;20074;-65
2022/10/09 01:36:10;;;;;;;16.23;14.77;;;16.20;99.90;;;;;;4955798;29;20026;-66
2022/10/09 01:38:38;;;;;;;14.48;13.02;;;16.20;99.90;;;;;;4955022;28;20051;-65
2022/10/09 01:41:06;;;;;;;17.23;15.52;;;16.20;99.90;;;;;;4955543;29;20045;-62
2022/10/09 01:43:31;;;;;;;13.88;12.48;;;16.20;99.90;;;;;;4955886;29;20030;-66
2022/10/09 01:46:30;;;;;;;16.08;14.48;;;16.30;99.90;;;;;;4955679;29;20031;-63
2022/10/09 01:49:05;;;;;;;14.55;13.18;;;16.30;99.90;;;;;;4955815;29;20078;-66
2022/10/09 01:51:38;;;;;;;13.25;12.05;;;16.30;99.90;;;;;;4955275;29;20418;-64
2022/10/09 01:54:07;;;;;;;15.10;13.68;;;16.30;99.90;;;;;;4955561;29;20059;-67
2022/10/09 01:56:37;;;;;;;19.45;17.55;;;16.40;99.90;;;;;;4955714;29;20033;-65
2022/10/09 01:59:10;;;;;;;17.45;15.70;;;16.30;99.90;;;;;;4955316;29;20051;-68
2022/10/09 02:01:36;;;;;;;16.52;15.02;;;16.30;99.90;;;;;;4955414;29;20026;-64
2022/10/09 02:04:06;;;;;;;18.17;16.48;;;16.30;99.90;;;;;;4955281;29;20027;-66
2022/10/09 02:06:33;;;;;;;13.30;12.10;;;16.30;99.90;;;;;;4955269;29;20486;-67
2022/10/09 02:09:01;;;;;;;13.32;12.20;;;16.30;99.90;;;;;;4955343;29;20496;-66
2022/10/09 02:11:31;;;;;;;14.52;13.23;;;16.40;99.90;;;;;;4955160;29;20023;-65
2022/10/09 02:13:58;;;;;;;12.30;11.30;;;16.40;99.90;;;;;;4955559;29;20023;-65
2022/10/09 02:16:36;;;;;;;13.32;12.13;;;16.40;99.90;;;;;;4955269;29;20015;-65
2022/10/09 02:19:35;;;;;;;12.57;11.43;;;16.40;99.90;;;;;;4955083;29;20027;-67
2022/10/09 02:22:18;;;;;;;10.63;9.73;;;16.40;99.90;;;;;;4954719;29;20015;-65
2022/10/09 02:24:45;;;;;;;12.85;11.75;;;16.40;99.90;;;;;;4955262;29;20074;-65
2022/10/09 02:27:12;;;;;;;11.00;10.10;;;16.40;99.90;;;;;;4954857;28;20078;-64
2022/10/09 02:29:40;;;;;;;10.98;9.98;;;16.50;99.90;;;;;;4955091;29;20042;-68
2022/10/09 02:32:05;;;;;;;10.82;9.93;;;16.40;99.90;;;;;;4955163;29;20031;-65
2022/10/09 02:34:31;;;;;;;12.38;11.27;;;16.40;99.90;;;;;;4955076;29;20389;-65
2022/10/09 02:36:57;;;;;;;11.20;10.20;;;16.50;99.90;;;;;;4954882;29;20054;-67
2022/10/09 02:39:23;;;;;;;12.73;11.43;;;16.50;99.90;;;;;;4955041;29;20482;-65
2022/10/09 02:41:48;;;;;;;15.38;13.88;;;16.50;99.90;;;;;;4955026;29;20539;-62
2022/10/09 02:44:14;;;;;;;14.50;13.15;;;16.50;99.90;;;;;;4954958;29;20038;-66
2022/10/09 02:46:39;;;;;;;14.35;12.95;;;16.50;99.90;;;;;;4954953;29;20031;-64
2022/10/09 02:49:06;;;;;;;11.52;10.55;;;16.60;99.90;;;;;;4956387;28;20362;-66
2022/10/09 02:51:32;;;;;;;11.88;10.80;;;16.60;99.90;;;;;;4958511;29;20034;-65
2022/10/09 02:53:58;;;;;;;14.32;13.02;;;16.60;99.90;;;;;;4958649;29;20027;-64
2022/10/09 02:56:24;;;;;;;15.20;13.82;;;16.50;99.90;;;;;;4958631;29;20055;-63
2022/10/09 02:58:50;;;;;;;13.55;12.25;;;16.50;99.90;;;;;;4958514;29;20016;-66
2022/10/09 03:01:16;;;;;;;12.70;11.70;;;16.50;99.90;;;;;;4958561;29;20031;-67
2022/10/09 03:03:42;;;;;;;12.63;11.52;;;16.40;99.90;;;;;;4958539;29;20094;-65
2022/10/09 03:06:22;;;;;;;13.75;12.48;;;16.50;99.90;;;;;;4958312;29;20082;-64
2022/10/09 03:08:50;;;;;;;13.73;12.32;;;16.50;99.90;;;;;;4958411;29;20485;-64
2022/10/09 03:11:17;;;;;;;14.50;13.15;;;16.50;99.90;;;;;;4958473;29;20106;-64
2022/10/09 03:13:43;;;;;;;14.13;12.82;;;16.50;99.90;;;;;;4958276;29;20027;-65
2022/10/09 03:16:14;;;;;;;12.88;11.63;;;16.50;99.90;;;;;;4958284;29;20035;-64
2022/10/09 03:18:40;;;;;;;11.40;10.40;;;16.60;99.90;;;;;;4958221;29;20027;-64
2022/10/09 03:21:10;;;;;;;11.98;10.98;;;16.50;99.90;;;;;;4957911;29;20035;-67
2022/10/09 03:23:37;;;;;;;13.27;12.07;;;16.50;99.90;;;;;;4958182;29;20023;-67
2022/10/09 03:26:09;;;;;;;13.00;11.70;;;16.60;99.90;;;;;;4958156;28;20058;-64
2022/10/09 03:28:39;;;;;;;16.73;15.10;;;16.60;99.90;;;;;;4958208;29;20114;-65
2022/10/09 03:31:06;;;;;;;14.10;12.88;;;16.60;99.90;;;;;;4958125;29;20032;-65
2022/10/09 03:33:35;;;;;;;11.80;10.80;;;16.50;99.90;;;;;;4957713;29;20386;-64
2022/10/09 03:36:01;;;;;;;12.63;11.43;;;16.50;99.90;;;;;;4958059;29;20019;-61
2022/10/09 03:38:27;;;;;;;19.40;17.50;;;16.60;99.90;;;;;;4957904;29;20098;-65
2022/10/09 03:40:53;;;;;;;19.48;17.63;;;16.60;99.90;;;;;;4957758;29;20435;-65
2022/10/09 03:43:19;;;;;;;17.90;16.25;;;16.50;99.90;;;;;;4957788;29;20031;-64
2022/10/09 03:45:45;;;;;;;16.30;14.70;;;16.50;99.90;;;;;;4957877;29;20470;-63
2022/10/09 03:48:12;;;;;;;15.27;13.88;;;16.50;99.90;;;;;;4957553;29;20027;-64
2022/10/09 03:50:39;;;;;;;15.32;13.93;;;16.50;99.90;;;;;;4957575;29;20486;-65
2022/10/09 03:53:05;;;;;;;13.00;11.90;;;16.60;99.90;;;;;;4957649;29;20027;-63
2022/10/09 03:55:31;;;;;;;14.50;13.25;;;16.60;99.90;;;;;;4957585;29;20106;-67
2022/10/09 03:57:57;;;;;;;13.07;11.98;;;16.60;99.90;;;;;;4957472;29;20147;-64
2022/10/09 04:00:23;;;;;;;13.88;12.68;;;16.60;99.90;;;;;;4956813;28;20409;-63
2022/10/09 04:02:49;;;;;;;13.50;12.32;;;16.60;99.90;;;;;;4957282;29;20035;-61
2022/10/09 04:05:15;;;;;;;13.93;12.73;;;16.60;99.90;;;;;;4957338;29;20027;-65
2022/10/09 04:07:40;;;;;;;16.00;14.40;;;16.60;99.90;;;;;;4957457;29;20024;-63
2022/10/09 04:10:06;;;;;;;14.25;12.95;;;16.60;99.90;;;;;;4957391;29;20107;-65
2022/10/09 04:12:32;;;;;;;15.82;14.23;;;16.70;99.90;;;;;;4957243;29;20440;-66
2022/10/09 04:14:57;;;;;;;15.20;13.82;;;16.70;99.90;;;;;;4957340;29;20110;-65
2022/10/09 04:17:23;;;;;;;15.35;13.95;;;16.70;99.90;;;;;;4957133;29;20541;-64
2022/10/09 04:19:49;;;;;;;16.55;15.00;;;16.70;99.90;;;;;;4957034;29;20027;-61
2022/10/09 04:22:14;;;;;;;16.40;14.90;;;16.70;99.90;;;;;;4957340;29;20045;-66
2022/10/09 04:24:40;;;;;;;14.75;13.35;;;16.70;99.90;;;;;;4957104;29;20450;-62
2022/10/09 04:27:06;;;;;;;16.38;14.68;;;16.70;99.90;;;;;;4956830;28;20530;-66
2022/10/09 04:29:31;;;;;;;14.73;13.32;;;16.80;99.90;;;;;;4956943;29;20030;-64
2022/10/09 04:31:57;;;;;;;14.75;13.35;;;16.80;99.90;;;;;;4956756;29;20027;-65
2022/10/09 04:34:23;;;;;;;15.30;13.73;;;16.70;99.90;;;;;;4956924;29;20421;-64
2022/10/09 04:36:48;;;;;;;13.85;12.65;;;16.70;99.90;;;;;;4956756;29;20116;-62
2022/10/09 04:39:14;;;;;;;12.75;11.57;;;16.70;99.90;;;;;;4956762;29;20031;-69
2022/10/09 04:41:39;;;;;;;13.10;12.00;;;16.70;99.90;;;;;;4956927;29;20023;-65
2022/10/09 04:44:06;;;;;;;14.63;13.32;;;16.70;99.90;;;;;;4956638;29;20031;-68
2022/10/09 04:46:31;;;;;;;14.85;13.50;;;16.70;99.90;;;;;;4956639;29;20413;-67
2022/10/09 04:48:57;;;;;;;14.32;13.02;;;16.70;99.90;;;;;;4956589;29;20110;-65
2022/10/09 04:51:23;;;;;;;18.40;16.60;;;16.70;99.90;;;;;;4956595;29;20146;-68
2022/10/09 04:53:49;;;;;;;17.67;16.08;;;16.80;99.90;;;;;;4956686;29;20393;-62
2022/10/09 04:56:17;;;;;;;16.45;14.95;;;16.70;99.90;;;;;;4956459;29;20389;-63
2022/10/09 04:58:44;;;;;;;16.30;14.90;;;16.70;99.90;;;;;;4956463;29;20023;-65
2022/10/09 05:01:21;;;;;;;23.00;20.65;;;16.70;99.90;;;;;;4956127;29;20066;-65
2022/10/09 05:03:47;;;;;;;23.20;20.98;;;16.80;99.90;;;;;;4956617;29;20028;-66
2022/10/09 05:06:14;;;;;;;21.85;19.85;;;16.70;99.90;;;;;;4956491;29;20023;-66
2022/10/09 05:08:41;;;;;;;20.60;18.70;;;16.60;99.90;;;;;;4956282;29;20039;-64
2022/10/09 05:11:14;;;;;;;23.88;21.48;;;16.60;99.90;;;;;;4956225;29;20050;-64
2022/10/09 05:13:43;;;;;;;20.45;18.55;;;16.60;99.90;;;;;;4955208;28;20125;-66
2022/10/09 05:16:12;;;;;;;20.83;18.73;;;16.60;99.90;;;;;;4956187;29;20031;-64
2022/10/09 05:18:46;;;;;;;18.83;16.95;;;16.60;99.90;;;;;;4938874;29;20483;-65
2022/10/09 05:21:11;;;;;;;18.77;16.98;;;16.70;99.90;;;;;;4955942;29;20039;-66
2022/10/09 05:23:37;;;;;;;18.23;16.58;;;16.70;99.90;;;;;;4956056;29;20387;-63
2022/10/09 05:26:09;;;;;;;19.40;17.27;;;16.70;99.90;;;;;;4955933;28;20024;-67
2022/10/09 05:28:35;;;;;;;17.15;15.65;;;16.80;99.90;;;;;;4956096;29;20042;-63
2022/10/09 05:31:05;;;;;;;17.83;16.02;;;16.80;99.90;;;;;;4955685;29;20098;-67
2022/10/09 05:33:31;;;;;;;23.60;20.50;;;16.90;99.90;;;;;;4955779;29;20034;-69
2022/10/09 05:35:59;;;;;;;25.08;22.27;;;17.00;99.90;;;;;;4955921;29;20023;-68
2022/10/09 05:38:26;;;;;;;31.35;24.67;;;17.00;99.90;;;;;;4955790;29;20470;-62
2022/10/09 05:40:57;;;;;;;32.28;25.83;;;17.00;99.90;;;;;;4955543;29;20031;-66
2022/10/09 05:43:24;;;;;;;29.55;23.58;;;17.00;99.90;;;;;;4955679;29;20434;-67
2022/10/09 05:45:50;;;;;;;38.28;27.88;;;17.00;99.90;;;;;;4955424;29;20024;-66
2022/10/09 05:48:16;;;;;;;24.23;21.73;;;17.00;99.90;;;;;;4955515;29;20023;-64
2022/10/09 05:50:41;;;;;;;32.97;24.98;;;17.00;99.90;;;;;;4955566;29;20082;-66
2022/10/09 05:53:07;;;;;;;28.00;21.30;;;17.10;99.90;;;;;;4955503;29;20028;-64
2022/10/09 05:55:33;;;;;;;29.83;23.73;;;17.00;99.90;;;;;;4955439;29;20102;-67
2022/10/09 05:57:58;;;;;;;31.77;24.50;;;17.10;99.90;;;;;;4955208;29;20050;-63
2022/10/09 06:00:24;;;;;;;26.88;21.95;;;17.10;99.90;;;;;;4955467;29;20031;-66
2022/10/09 06:02:49;;;;;;;27.40;22.20;;;17.10;99.90;;;;;;4955418;29;20079;-67
2022/10/09 06:05:15;;;;;;;29.58;23.23;;;17.20;99.90;;;;;;4955297;29;20023;-64
2022/10/09 06:07:41;;;;;;;24.92;21.23;;;17.30;99.90;;;;;;4955275;29;20438;-67
2022/10/09 06:10:07;;;;;;;25.00;21.00;;;17.30;99.90;;;;;;4955334;29;20111;-66
2022/10/09 06:12:32;;;;;;;53.78;34.70;;;17.30;99.90;;;;;;4955311;29;20024;-63
2022/10/09 06:14:58;;;;;;;59.38;39.47;;;17.30;99.90;;;;;;4955456;29;20106;-66
2022/10/09 06:17:24;;;;;;;39.88;30.17;;;17.10;99.90;;;;;;4955222;29;20062;-67
2022/10/09 06:19:49;;;;;;;39.10;30.10;;;17.00;99.90;;;;;;4955041;29;20401;-66
2022/10/09 06:22:15;;;;;;;32.42;26.65;;;17.00;99.90;;;;;;4955224;29;20019;-67
2022/10/09 06:24:41;;;;;;;38.78;28.80;;;17.10;99.90;;;;;;4959536;28;20072;-64
2022/10/09 06:27:06;;;;;;;50.03;32.10;;;17.30;99.90;;;;;;4961141;28;20047;-65
2022/10/09 06:29:32;;;;;;;42.78;29.83;;;17.30;99.90;;;;;;4961415;29;20028;-66
2022/10/09 06:31:58;;;;;;;32.78;24.73;;;17.30;99.90;;;;;;4961495;28;20027;-67
2022/10/09 06:34:23;;;;;;;33.65;25.67;;;17.40;99.90;;;;;;4961567;28;20492;-64
2022/10/09 06:36:49;;;;;;;35.33;26.48;;;17.40;99.90;;;;;;4961329;29;20023;-67
2022/10/09 06:39:14;;;;;;;31.75;25.08;;;17.50;99.90;;;;;;4961326;28;20414;-63
2022/10/09 06:41:40;;;;;;;29.83;24.40;;;17.50;99.90;;;;;;4961327;28;20026;-67
2022/10/09 06:44:09;;;;;;;29.92;23.95;;;17.60;99.90;;;;;;4944096;29;20023;-65
2022/10/09 06:46:38;;;;;;;32.42;25.98;;;17.60;99.90;;;;;;4961495;29;20027;-66
2022/10/09 06:49:06;;;;;;;28.40;23.83;;;17.70;99.90;;;;;;4961421;28;20046;-66
2022/10/09 06:51:32;;;;;;;37.50;28.45;;;17.70;99.90;;;;;;4961329;29;20027;-66
2022/10/09 06:54:01;;;;;;;29.65;26.52;;;17.70;99.90;;;;;;4961373;29;20020;-64
2022/10/09 06:56:29;;;;;;;32.60;27.98;;;17.70;99.90;;;;;;4961201;29;20054;-68
2022/10/09 06:58:57;;;;;;;34.83;27.13;;;17.80;99.90;;;;;;4961170;29;20394;-62
2022/10/09 07:01:30;;;;;;;30.23;26.40;;;17.80;99.90;;;;;;4961281;29;20070;-66
2022/10/09 07:03:58;;;;;;;39.65;33.13;;;17.90;99.90;;;;;;4961384;29;20058;-64
2022/10/09 07:06:29;;;;;;;42.47;32.95;;;18.10;99.90;;;;;;4961492;29;20478;-63
2022/10/09 07:09:04;;;;;;;34.88;28.73;;;18.30;99.90;;;;;;4961187;29;20025;-67
2022/10/09 07:11:34;;;;;;;32.33;27.95;;;18.30;99.90;;;;;;4960874;29;20062;-65
2022/10/09 07:14:03;;;;;;;28.58;24.92;;;18.40;99.90;;;;;;4961101;29;20027;-62
2022/10/09 07:16:40;;;;;;;31.30;25.75;;;18.40;99.90;;;;;;4961112;29;20481;-63
2022/10/09 07:19:09;;;;;;;25.38;22.58;;;18.50;99.90;;;;;;4961195;28;20028;-65
2022/10/09 07:21:36;;;;;;;27.73;24.38;;;18.60;99.90;;;;;;4961125;29;20042;-63
2022/10/09 07:24:03;;;;;;;27.80;24.83;;;18.70;99.90;;;;;;4961022;28;20078;-67
2022/10/09 07:26:31;;;;;;;29.25;26.23;;;18.90;99.90;;;;;;4960664;28;20490;-62
2022/10/09 07:28:58;;;;;;;45.65;37.50;;;19.20;99.90;;;;;;4961098;29;20093;-65
2022/10/09 07:31:23;;;;;;;35.13;29.75;;;19.50;99.90;;;;;;4960926;28;20031;-68
2022/10/09 07:33:51;;;;;;;27.95;24.45;;;19.40;99.90;;;;;;4961003;29;20437;-65
2022/10/09 07:36:17;;;;;;;34.17;29.00;;;19.50;99.90;;;;;;4957727;28;20031;-62
2022/10/09 07:38:47;;;;;;;44.70;37.63;;;19.80;99.90;;;;;;4957913;29;20023;-64
2022/10/09 07:41:13;;;;;;;33.15;29.05;;;19.90;99.90;;;;;;4957603;29;20102;-64
2022/10/09 07:43:40;;;;;;;38.95;32.53;;;19.70;99.90;;;;;;4957837;29;20099;-65
2022/10/09 07:46:10;;;;;;;36.08;32.17;;;19.80;99.90;;;;;;4957906;29;20027;-64
2022/10/09 07:48:35;;;;;;;41.45;34.05;;;19.60;99.90;;;;;;4957676;29;20033;-67
2022/10/09 07:51:16;;;;;;;30.65;27.55;;;19.40;99.90;;;;;;4957716;29;20106;-66
2022/10/09 07:53:43;;;;;;;29.55;26.63;;;19.30;99.90;;;;;;4957551;29;20027;-65
2022/10/09 07:56:28;;;;;;;26.52;23.92;;;19.50;99.90;;;;;;4957442;29;20478;-63
2022/10/09 07:59:13;;;;;;;29.40;26.30;;;19.90;99.90;;;;;;4957494;29;20381;-63
2022/10/09 08:01:40;;;;;;;27.20;24.33;;;20.50;99.90;;;;;;4949804;29;20027;-64
2022/10/09 08:04:05;;;;;;;30.70;27.40;;;20.70;99.90;;;;;;4957360;29;20535;-63
2022/10/09 08:06:32;;;;;;;30.83;27.63;;;20.50;99.90;;;;;;4957369;29;20028;-64
2022/10/09 08:09:00;;;;;;;26.60;23.92;;;20.30;99.90;;;;;;4957242;29;20211;-62
2022/10/09 08:11:28;;;;;;;29.75;26.38;;;20.10;99.90;;;;;;4957228;29;20106;-66
2022/10/09 08:13:54;;;;;;;40.03;32.45;;;20.10;99.90;;;;;;4957317;29;20102;-67
2022/10/09 08:16:21;;;;;;;30.88;27.65;;;20.10;99.90;;;;;;4957287;29;20020;-64
2022/10/09 08:18:47;;;;;;;28.27;25.33;;;20.30;99.90;;;;;;4957192;29;20066;-65
2022/10/09 08:21:17;;;;;;;30.30;26.92;;;20.80;99.90;;;;;;4957071;29;20393;-66
2022/10/09 08:23:43;;;;;;;31.23;28.13;;;21.60;99.90;;;;;;4957031;29;20023;-66
2022/10/09 08:26:17;;;;;;;39.05;32.33;;;22.00;99.90;;;;;;4956758;28;20034;-62
2022/10/09 08:28:48;;;;;;;38.97;33.15;;;22.00;99.90;;;;;;4957057;29;20051;-68
2022/10/09 08:31:15;;;;;;;41.88;33.63;;;21.80;99.90;;;;;;4956961;29;20023;-64
2022/10/09 08:33:42;;;;;;;38.60;31.83;;;21.70;99.90;;;;;;4956824;29;20026;-65
2022/10/09 08:36:10;;;;;;;48.33;36.85;;;21.40;99.90;;;;;;4956921;29;20054;-63
2022/10/09 08:38:36;;;;;;;37.03;31.42;;;20.90;99.90;;;;;;4956917;29;20034;-67
2022/10/09 08:41:05;;;;;;;32.08;28.45;;;20.80;99.90;;;;;;4956648;29;20035;-64
2022/10/09 08:43:38;;;;;;;32.22;27.52;;;20.80;99.90;;;;;;4956858;29;20057;-65
2022/10/09 08:46:13;;;;;;;36.03;30.52;;;21.00;99.90;;;;;;4956725;29;20041;-64
2022/10/09 08:48:43;;;;;;;39.10;33.00;;;21.30;99.90;;;;;;4956862;29;20074;-62
2022/10/09 08:51:20;;;;;;;49.75;37.55;;;21.60;99.90;;;;;;4956613;29;20506;-65
2022/10/09 08:53:57;;;;;;;78.35;50.13;;;21.90;99.90;;;;;;4956637;29;20027;-65
2022/10/09 08:56:25;;;;;;;64.25;44.92;;;21.80;99.90;;;;;;4956506;29;20110;-65
2022/10/09 08:58:51;;;;;;;63.30;43.58;;;21.40;99.90;;;;;;4956601;29;20032;-64
2022/10/09 09:01:41;;;;;;;58.83;40.88;;;21.50;99.90;;;;;;4956298;29;20586;-65
2022/10/09 09:04:13;;;;;;;58.88;39.70;;;21.50;99.90;;;;;;4956293;29;20046;-64
2022/10/09 09:06:46;;;;;;;47.88;34.83;;;21.60;99.90;;;;;;4956106;29;20023;-64
2022/10/09 09:09:18;;;;;;;46.58;34.10;;;21.70;99.90;;;;;;4956207;29;20594;-67
2022/10/09 09:11:55;;;;;;;42.17;30.95;;;21.90;99.90;;;;;;4956225;29;20019;-65
2022/10/09 09:14:27;;;;;;;41.20;29.45;;;22.10;99.90;;;;;;4956160;29;20024;-64
2022/10/09 09:17:19;;;;;;;32.78;25.50;;;22.20;99.90;;;;;;4956102;29;20030;-67
2022/10/09 09:19:48;;;;;;;39.85;27.85;;;22.40;99.90;;;;;;4955977;29;20035;-67
2022/10/09 09:22:15;;;;;;;29.98;23.27;;;22.00;99.90;;;;;;4955848;29;20046;-65
2022/10/09 09:24:55;;;;;;;21.70;18.38;;;22.10;99.90;;;;;;4956234;29;20034;-63
2022/10/09 09:27:33;;;;;;;21.55;17.88;;;22.30;99.90;;;;;;4955555;28;20051;-64
2022/10/09 09:30:33;;;;;;;17.50;14.73;;;22.50;99.90;;;;;;4956122;29;20035;-68
2022/10/09 09:33:10;;;;;;;13.52;12.10;;;22.80;98.80;;;;;;4930446;29;20031;-63
2022/10/09 09:36:14;;;;;;;16.45;13.07;;;22.80;96.20;;;;;;4955550;29;20030;-65
2022/10/09 09:38:40;;;;;;;;;;;22.80;95.10;;;;;;4913504;29;20545;-65
2022/10/09 09:41:06;;;;;;;10.15;9.25;;;22.50;95.40;;;;;;4955629;29;19918;-63
2022/10/09 09:43:31;;;;;;;8.93;8.02;;;22.40;96.00;;;;;;4955682;29;20098;-66
2022/10/09 09:45:59;;;;;;;9.25;8.45;;;22.30;97.40;;;;;;4955946;29;20074;-67
2022/10/09 09:48:30;;;;;;;8.95;8.10;;;22.40;96.40;;;;;;4938321;29;20019;-62
2022/10/09 09:50:56;;;;;;;11.70;10.50;;;22.50;96.10;;;;;;4955501;29;20023;-63
2022/10/09 09:53:43;;;;;;;10.30;9.30;;;22.70;97.10;;;;;;4955543;29;20382;-64
2022/10/09 09:56:09;;;;;;;9.43;8.60;;;22.70;94.60;;;;;;4955486;29;20058;-65
2022/10/09 09:58:50;;;;;;;8.35;7.65;;;22.90;94.90;;;;;;4954977;29;20359;-66
2022/10/09 10:01:24;;;;;;;8.90;8.10;;;23.20;93.10;;;;;;4955305;29;20494;-62
2022/10/09 10:03:53;;;;;;;10.32;9.43;;;23.40;90.50;;;;;;4955466;29;20023;-64
2022/10/09 10:06:32;;;;;;;10.90;9.90;;;23.60;88.40;;;;;;4955119;29;20019;-67
2022/10/09 10:09:13;;;;;;;10.95;9.93;;;23.90;91.60;;;;;;4955449;29;20028;-65
2022/10/09 10:11:44;;;;;;;8.70;7.85;;;23.90;90.20;;;;;;4955576;29;20042;-62
2022/10/09 10:14:15;;;;;;;6.68;6.07;;;23.70;82.20;;;;;;4955244;29;20028;-64
2022/10/09 10:16:41;;;;;;;6.22;5.63;;;23.50;81.80;;;;;;4955431;29;20024;-64
2022/10/09 10:19:20;;;;;;;5.70;5.30;;;23.50;79.60;;;;;;4955524;29;20023;-67
2022/10/09 10:21:53;;;;;;;6.50;6.00;;;23.50;82.20;;;;;;4955102;29;20070;-67
2022/10/09 10:24:26;;;;;;;5.13;4.72;;;23.50;80.90;;;;;;4955324;29;20026;-64
2022/10/09 10:26:58;;;;;;;5.88;5.47;;;23.50;80.10;;;;;;4954978;28;20103;-63
2022/10/09 10:29:36;;;;;;;4.80;4.50;;;23.60;76.20;;;;;;4955113;29;20027;-63
2022/10/09 10:32:25;;;;;;;5.65;5.25;;;23.70;76.60;;;;;;4955142;29;20479;-67
2022/10/09 10:35:13;;;;;;;4.93;4.63;;;24.00;77.40;;;;;;4954942;29;20478;-63
2022/10/09 10:37:48;;;;;;;7.35;6.75;;;24.10;74.40;;;;;;4955015;29;20023;-63
2022/10/09 10:40:39;;;;;;;5.72;5.22;;;24.30;77.00;;;;;;4954956;29;20031;-67
2022/10/09 10:43:12;;;;;;;5.70;5.20;;;24.50;74.80;;;;;;4915766;29;20035;-66
2022/10/09 10:45:43;;;;;;;7.28;6.60;;;24.40;67.40;;;;;;4955178;29;20054;-65
2022/10/09 10:48:14;;;;;;;5.15;4.68;;;24.20;67.60;;;;;;4954933;29;20027;-63
2022/10/09 10:50:52;;;;;;;5.68;5.10;;;24.10;69.20;;;;;;4955069;29;20151;-66
2022/10/09 10:53:46;;;;;;;4.40;4.10;;;24.20;68.80;;;;;;4954973;29;20482;-64
2022/10/09 10:56:53;;;;;;;7.60;6.90;;;24.60;71.00;;;;;;4951074;29;20398;-68
2022/10/09 10:59:38;;;;;;;5.43;4.93;;;25.20;68.10;;;;;;4886218;29;20589;-65
2022/10/09 11:02:31;;;;;;;8.85;5.93;;;25.70;65.00;;;;;;4954789;29;20019;-65
2022/10/09 11:05:05;;;;;;;5.68;5.18;;;25.80;64.20;;;;;;4954955;29;20433;-66
2022/10/09 11:07:55;;;;;;;4.70;4.30;;;25.40;64.10;;;;;;4954878;29;20512;-67
2022/10/09 11:10:45;;;;;;;4.22;3.92;;;25.20;66.30;;;;;;4954890;28;20041;-65
2022/10/09 11:13:21;;;;;;;4.45;4.15;;;25.00;63.90;;;;;;4958401;29;20486;-64
2022/10/09 11:16:02;;;;;;;5.65;5.15;;;24.60;65.20;;;;;;4958210;29;20545;-65
2022/10/09 11:19:03;;;;;;;5.50;5.00;;;24.30;66.40;;;;;;4958084;29;20039;-64
2022/10/09 11:22:01;;;;;;;9.23;6.47;;;24.00;68.30;;;;;;4958192;29;20118;-68
2022/10/09 11:24:44;;;;;;;5.00;4.60;;;23.80;69.50;;;;;;4958236;29;20028;-64
2022/10/09 11:27:17;;;;;;;5.97;5.00;;;23.80;70.70;;;;;;4957997;28;20106;-66
2022/10/09 11:29:55;;;;;;;;;;;23.80;69.50;;;;;;4958624;29;20094;-62
2022/10/09 11:32:52;;;;;;;7.80;6.20;;;23.80;69.30;;;;;;4957831;29;20284;-65
2022/10/09 11:35:21;;;;;;;5.50;5.10;;;23.80;71.10;;;;;;4958005;29;20055;-64
2022/10/09 11:38:00;;;;;;;5.35;4.97;;;23.60;70.70;;;;;;4957841;29;20031;-64
2022/10/09 11:40:40;;;;;;;5.45;5.00;;;23.60;70.90;;;;;;4958003;29;20038;-63
2022/10/09 11:43:19;;;;;;;5.47;5.07;;;23.50;71.20;;;;;;4957811;29;20466;-66
2022/10/09 11:45:57;;;;;;;7.55;6.95;;;23.60;71.00;;;;;;4957937;29;20019;-63
2022/10/09 11:48:31;;;;;;;6.25;5.75;;;23.30;71.10;;;;;;4957530;29;20102;-62
2022/10/09 11:51:07;;;;;;;7.18;6.03;;;23.30;70.90;;;;;;4957796;29;20490;-66
2022/10/09 11:53:35;;;;;;;5.60;5.18;;;23.30;72.90;;;;;;4957585;29;20482;-68
2022/10/09 11:56:03;;;;;;;6.47;5.90;;;23.40;70.50;;;;;;4957617;29;20167;-63
2022/10/09 11:58:29;;;;;;;5.32;4.90;;;23.40;69.70;;;;;;4957653;29;20019;-66
2022/10/09 12:01:07;;;;;;;5.93;5.35;;;23.50;69.30;;;;;;4957273;29;20038;-66
2022/10/09 12:03:35;;;;;;;6.43;5.88;;;23.60;69.50;;;;;;4957740;29;20026;-67
2022/10/09 12:06:09;;;;;;;6.38;5.78;;;23.70;69.60;;;;;;4957524;29;20025;-66
2022/10/09 12:08:37;;;;;;;8.68;7.88;;;24.00;71.10;;;;;;4957379;29;20058;-64
2022/10/09 12:11:12;;;;;;;8.18;7.38;;;24.40;69.30;;;;;;4957645;29;20027;-64
2022/10/09 12:13:39;;;;;;;8.32;7.63;;;24.90;67.40;;;;;;4957253;29;20091;-66
2022/10/09 12:16:07;;;;;;;8.23;7.32;;;25.10;66.90;;;;;;4957314;29;20032;-67
2022/10/09 12:18:36;;;;;;;7.38;6.78;;;25.10;65.50;;;;;;4957279;29;20114;-66
2022/10/09 12:21:07;;;;;;;6.65;5.82;;;25.20;67.20;;;;;;4956794;28;20473;-63
2022/10/09 12:23:38;;;;;;;6.13;5.50;;;25.30;65.70;;;;;;4957328;29;20082;-64
2022/10/09 12:26:09;;;;;;;5.63;5.13;;;25.60;62.50;;;;;;4957024;28;20019;-65
2022/10/09 12:29:00;;;;;;;4.97;4.57;;;25.80;61.90;;;;;;4957055;29;20086;-69
2022/10/09 12:31:37;;;;;;;5.10;4.70;;;25.70;60.10;;;;;;4956089;29;20561;-67
2022/10/09 12:34:05;;;;;;;4.40;4.10;;;25.70;59.90;;;;;;4956983;29;20409;-64
2022/10/09 12:36:33;;;;;;;4.97;4.63;;;25.60;60.50;;;;;;4956914;29;20363;-65
2022/10/09 12:39:17;;;;;;;4.25;3.95;;;25.40;62.20;;;;;;4956849;29;20521;-68
2022/10/09 12:41:45;;;;;;;3.78;3.47;;;25.30;63.20;;;;;;4956714;29;20059;-68
2022/10/09 12:44:25;;;;;;;4.07;3.60;;;25.10;62.60;;;;;;4956687;29;20482;-64
2022/10/09 12:46:51;;;;;;;3.40;3.20;;;25.00;63.40;;;;;;4956635;29;20019;-63
2022/10/09 12:49:20;;;;;;;4.03;3.65;;;24.90;63.20;;;;;;4956552;29;20023;-65
2022/10/09 12:51:52;;;;;;;3.63;3.42;;;24.80;63.50;;;;;;4956742;29;20058;-65